sensor_id;sensor_type;location;lat;lon;timestamp;pressure;altitude;pressure_sealevel;temperature;humidity
46598;BME280;32318;48.858;8.252;2023-06-24T00:06:32;101073.78;;;20.38;52.66
46598;BME280;32318;48.858;8.252;2023-06-24T00:14:33;101078.38;;;20.31;52.75
46598;BME280;32318;48.858;8.252;2023-06-24T00:22:33;101078.78;;;20.14;53.31
46598;BME280;32318;48.858;8.252;2023-06-24T00:30:33;101072.97;;;20.11;53.76
46598;BME280;32318;48.858;8.252;2023-06-24T00:38:33;101085.03;;;19.95;53.62
46598;BME280;32318;48.858;8.252;2023-06-24T00:46:34;101075.56;;;19.77;53.93
46598;BME280;32318;48.858;8.252;2023-06-24T00:54:35;101082.19;;;19.54;54.67
46598;BME280;32318;48.858;8.252;2023-06-24T01:02:35;101094.47;;;19.57;54.39
46598;BME280;32318;48.858;8.252;2023-06-24T01:10:37;101090.69;;;19.51;54.69
46598;BME280;32318;48.858;8.252;2023-06-24T01:18:46;101080.69;;;19.45;55.44
46598;BME280;32318;48.858;8.252;2023-06-24T01:35:19;101087.31;;;19.36;54.87
46598;BME280;32318;48.858;8.252;2023-06-24T01:43:23;101080.19;;;19.21;55.79
46598;BME280;32318;48.858;8.252;2023-06-24T01:51:24;101069.56;;;19.20;55.29
46598;BME280;32318;48.858;8.252;2023-06-24T01:59:25;101061.78;;;19.10;55.32
46598;BME280;32318;48.858;8.252;2023-06-24T02:07:28;101072.78;;;19.02;55.45
46598;BME280;32318;48.858;8.252;2023-06-24T02:15:30;101071.28;;;18.92;56.03
46598;BME280;32318;48.858;8.252;2023-06-24T02:23:31;101078.09;;;18.88;56.01
46598;BME280;32318;48.858;8.252;2023-06-24T02:31:33;101079.94;;;18.88;56.10
46598;BME280;32318;48.858;8.252;2023-06-24T02:39:34;101076.59;;;18.79;56.36
46598;BME280;32318;48.858;8.252;2023-06-24T02:47:35;101071.56;;;18.76;56.29
46598;BME280;32318;48.858;8.252;2023-06-24T02:55:36;101085.22;;;18.68;56.29
46598;BME280;32318;48.858;8.252;2023-06-24T03:03:37;101080.94;;;18.52;56.64
46598;BME280;32318;48.858;8.252;2023-06-24T03:11:44;101088.59;;;18.19;57.88
46598;BME280;32318;48.858;8.252;2023-06-24T03:19:44;101088.50;;;17.91;59.24
46598;BME280;32318;48.858;8.252;2023-06-24T03:27:45;101098.41;;;17.84;59.90
46598;BME280;32318;48.858;8.252;2023-06-24T03:35:45;101105.97;;;17.95;59.69
46598;BME280;32318;48.858;8.252;2023-06-24T03:43:46;101106.28;;;18.00;60.52
46598;BME280;32318;48.858;8.252;2023-06-24T03:51:46;101103.78;;;18.21;60.12
46598;BME280;32318;48.858;8.252;2023-06-24T03:59:47;101112.34;;;18.24;60.16
46598;BME280;32318;48.858;8.252;2023-06-24T04:07:47;101116.38;;;18.35;60.06
46598;BME280;32318;48.858;8.252;2023-06-24T04:15:47;101121.78;;;18.35;59.52
46598;BME280;32318;48.858;8.252;2023-06-24T04:23:48;101115.75;;;18.33;59.51
46598;BME280;32318;48.858;8.252;2023-06-24T04:31:48;101116.56;;;18.33;59.50
46598;BME280;32318;48.858;8.252;2023-06-24T04:39:48;101127.00;;;18.37;59.34
46598;BME280;32318;48.858;8.252;2023-06-24T04:47:49;101135.88;;;18.52;58.96
46598;BME280;32318;48.858;8.252;2023-06-24T04:55:49;101134.72;;;18.61;58.94
46598;BME280;32318;48.858;8.252;2023-06-24T05:03:49;101135.38;;;18.70;58.79
46598;BME280;32318;48.858;8.252;2023-06-24T05:11:49;101137.56;;;18.81;58.70
46598;BME280;32318;48.858;8.252;2023-06-24T05:19:50;101147.16;;;19.06;58.48
46598;BME280;32318;48.858;8.252;2023-06-24T05:27:50;101160.50;;;19.49;57.70
46598;BME280;32318;48.858;8.252;2023-06-24T05:35:50;101156.75;;;19.99;56.77
46598;BME280;32318;48.858;8.252;2023-06-24T05:44:03;101160.63;;;20.58;55.79
46598;BME280;32318;48.858;8.252;2023-06-24T05:52:04;101156.88;;;21.06;54.30
46598;BME280;32318;48.858;8.252;2023-06-24T06:00:07;101167.00;;;21.44;54.28
46598;BME280;32318;48.858;8.252;2023-06-24T06:08:07;101172.91;;;21.87;53.41
46598;BME280;32318;48.858;8.252;2023-06-24T06:16:08;101161.84;;;22.20;52.89
46598;BME280;32318;48.858;8.252;2023-06-24T06:24:08;101160.78;;;22.60;52.55
46598;BME280;32318;48.858;8.252;2023-06-24T06:32:08;101163.56;;;22.79;51.79
46598;BME280;32318;48.858;8.252;2023-06-24T06:40:09;101161.94;;;22.96;50.87
46598;BME280;32318;48.858;8.252;2023-06-24T06:48:09;101163.56;;;23.23;51.05
46598;BME280;32318;48.858;8.252;2023-06-24T06:56:22;101150.28;;;23.08;50.27
46598;BME280;32318;48.858;8.252;2023-06-24T07:04:22;101147.84;;;22.99;50.67
46598;BME280;32318;48.858;8.252;2023-06-24T07:12:23;101147.72;;;23.13;51.30
46598;BME280;32318;48.858;8.252;2023-06-24T07:20:24;101148.44;;;23.27;51.65
46598;BME280;32318;48.858;8.252;2023-06-24T07:28:24;101145.09;;;23.25;51.39
46598;BME280;32318;48.858;8.252;2023-06-24T07:36:25;101146.22;;;23.36;50.81
46598;BME280;32318;48.858;8.252;2023-06-24T07:44:25;101138.56;;;23.63;51.23
46598;BME280;32318;48.858;8.252;2023-06-24T07:52:25;101137.13;;;23.91;50.77
46598;BME280;32318;48.858;8.252;2023-06-24T08:00:26;101145.19;;;24.04;50.55
46598;BME280;32318;48.858;8.252;2023-06-24T08:08:26;101142.72;;;24.15;49.78
46598;BME280;32318;48.858;8.252;2023-06-24T08:16:26;101140.16;;;24.32;49.29
46598;BME280;32318;48.858;8.252;2023-06-24T08:24:26;101130.44;;;24.48;48.59
46598;BME280;32318;48.858;8.252;2023-06-24T08:32:27;101119.56;;;24.71;48.58
46598;BME280;32318;48.858;8.252;2023-06-24T08:40:28;101111.50;;;25.00;47.44
46598;BME280;32318;48.858;8.252;2023-06-24T08:48:29;101116.66;;;25.26;45.67
46598;BME280;32318;48.858;8.252;2023-06-24T08:56:30;101105.59;;;25.44;45.30
46598;BME280;32318;48.858;8.252;2023-06-24T09:04:31;101108.09;;;25.75;42.90
46598;BME280;32318;48.858;8.252;2023-06-24T09:12:32;101103.38;;;26.16;40.62
46598;BME280;32318;48.858;8.252;2023-06-24T09:20:33;101090.31;;;26.06;40.85
46598;BME280;32318;48.858;8.252;2023-06-24T09:28:39;101080.50;;;26.39;39.15
46598;BME280;32318;48.858;8.252;2023-06-24T09:36:52;101066.78;;;26.56;37.51
46598;BME280;32318;48.858;8.252;2023-06-24T09:44:54;101061.69;;;26.65;37.34
46598;BME280;32318;48.858;8.252;2023-06-24T09:52:56;101053.69;;;26.98;35.58
46598;BME280;32318;48.858;8.252;2023-06-24T10:01:01;101047.56;;;27.35;34.83
46598;BME280;32318;48.858;8.252;2023-06-24T10:09:02;101037.97;;;27.37;36.02
46598;BME280;32318;48.858;8.252;2023-06-24T10:17:03;101037.81;;;27.44;33.93
46598;BME280;32318;48.858;8.252;2023-06-24T10:25:07;101027.66;;;27.45;33.41
46598;BME280;32318;48.858;8.252;2023-06-24T10:33:11;101015.72;;;27.56;32.85
46598;BME280;32318;48.858;8.252;2023-06-24T10:41:16;101009.31;;;27.78;33.00
46598;BME280;32318;48.858;8.252;2023-06-24T10:49:18;101000.28;;;27.82;33.82
46598;BME280;32318;48.858;8.252;2023-06-24T10:57:23;100992.47;;;28.01;32.84
46598;BME280;32318;48.858;8.252;2023-06-24T11:05:24;100975.41;;;27.94;32.65
46598;BME280;32318;48.858;8.252;2023-06-24T11:13:24;100975.91;;;28.18;32.11
46598;BME280;32318;48.858;8.252;2023-06-24T11:21:30;100962.84;;;28.03;32.04
46598;BME280;32318;48.858;8.252;2023-06-24T11:29:34;100955.38;;;27.94;32.40
46598;BME280;32318;48.858;8.252;2023-06-24T11:37:34;100936.41;;;27.87;31.71
46598;BME280;32318;48.858;8.252;2023-06-24T11:45:34;100939.53;;;28.44;31.54
46598;BME280;32318;48.858;8.252;2023-06-24T11:53:44;100922.66;;;28.20;31.13
46598;BME280;32318;48.858;8.252;2023-06-24T12:01:58;100906.56;;;28.44;30.28
46598;BME280;32318;48.858;8.252;2023-06-24T12:10:00;100899.75;;;28.57;30.17
46598;BME280;32318;48.858;8.252;2023-06-24T12:18:01;100907.22;;;28.72;29.10
46598;BME280;32318;48.858;8.252;2023-06-24T12:26:02;100881.72;;;28.92;28.77
46598;BME280;32318;48.858;8.252;2023-06-24T12:34:02;100875.41;;;28.96;28.82
46598;BME280;32318;48.858;8.252;2023-06-24T12:42:02;100865.81;;;29.15;28.32
46598;BME280;32318;48.858;8.252;2023-06-24T12:50:03;100850.16;;;29.46;27.89
46598;BME280;32318;48.858;8.252;2023-06-24T12:58:07;100841.88;;;29.72;27.40
46598;BME280;32318;48.858;8.252;2023-06-24T13:06:08;100858.66;;;29.65;26.86
46598;BME280;32318;48.858;8.252;2023-06-24T13:14:08;100838.59;;;29.54;26.51
46598;BME280;32318;48.858;8.252;2023-06-24T13:22:12;100837.50;;;29.55;26.42
46598;BME280;32318;48.858;8.252;2023-06-24T13:30:12;100827.81;;;29.73;25.88
46598;BME280;32318;48.858;8.252;2023-06-24T13:38:15;100815.44;;;29.66;26.70
46598;BME280;32318;48.858;8.252;2023-06-24T13:46:15;100815.47;;;29.71;26.85
46598;BME280;32318;48.858;8.252;2023-06-24T13:54:16;100818.78;;;29.52;27.06
46598;BME280;32318;48.858;8.252;2023-06-24T14:02:16;100808.56;;;29.73;26.99
46598;BME280;32318;48.858;8.252;2023-06-24T14:10:16;100812.09;;;29.95;27.31
46598;BME280;32318;48.858;8.252;2023-06-24T14:18:17;100808.81;;;29.87;27.51
46598;BME280;32318;48.858;8.252;2023-06-24T14:26:18;100785.97;;;29.82;27.23
46598;BME280;32318;48.858;8.252;2023-06-24T14:34:18;100775.78;;;29.87;27.94
46598;BME280;32318;48.858;8.252;2023-06-24T14:42:18;100762.50;;;30.05;27.18
46598;BME280;32318;48.858;8.252;2023-06-24T14:50:19;100760.31;;;30.07;27.89
46598;BME280;32318;48.858;8.252;2023-06-24T14:58:19;100749.06;;;29.93;27.59
46598;BME280;32318;48.858;8.252;2023-06-24T15:06:20;100747.22;;;29.73;27.69
46598;BME280;32318;48.858;8.252;2023-06-24T15:14:20;100738.66;;;29.74;27.36
46598;BME280;32318;48.858;8.252;2023-06-24T15:22:21;100738.47;;;29.55;27.61
46598;BME280;32318;48.858;8.252;2023-06-24T15:30:21;100715.63;;;29.45;28.80
46598;BME280;32318;48.858;8.252;2023-06-24T15:38:21;100722.78;;;29.51;28.27
46598;BME280;32318;48.858;8.252;2023-06-24T15:46:22;100717.31;;;29.35;27.96
46598;BME280;32318;48.858;8.252;2023-06-24T15:54:23;100720.34;;;29.44;28.13
46598;BME280;32318;48.858;8.252;2023-06-24T16:02:26;100712.09;;;29.29;27.80
46598;BME280;32318;48.858;8.252;2023-06-24T16:10:27;100708.22;;;29.45;27.24
46598;BME280;32318;48.858;8.252;2023-06-24T16:18:27;100707.97;;;29.36;27.45
46598;BME280;32318;48.858;8.252;2023-06-24T16:26:27;100695.34;;;29.25;27.17
46598;BME280;32318;48.858;8.252;2023-06-24T16:34:28;100693.97;;;29.12;28.16
46598;BME280;32318;48.858;8.252;2023-06-24T16:42:28;100690.69;;;29.00;27.54
46598;BME280;32318;48.858;8.252;2023-06-24T16:50:28;100678.63;;;28.90;28.09
46598;BME280;32318;48.858;8.252;2023-06-24T16:58:28;100676.41;;;28.82;27.70
46598;BME280;32318;48.858;8.252;2023-06-24T17:06:29;100676.41;;;28.67;27.92
46598;BME280;32318;48.858;8.252;2023-06-24T17:14:29;100674.22;;;28.58;27.70
46598;BME280;32318;48.858;8.252;2023-06-24T17:22:30;100673.94;;;28.49;27.78
46598;BME280;32318;48.858;8.252;2023-06-24T17:30:30;100665.41;;;28.41;27.50
46598;BME280;32318;48.858;8.252;2023-06-24T17:38:30;100672.00;;;28.29;28.25
46598;BME280;32318;48.858;8.252;2023-06-24T17:54:41;100654.59;;;27.98;29.05
46598;BME280;32318;48.858;8.252;2023-06-24T18:02:41;100662.25;;;27.80;30.04
46598;BME280;32318;48.858;8.252;2023-06-24T18:10:41;100654.81;;;27.65;30.71
46598;BME280;32318;48.858;8.252;2023-06-24T18:18:43;100651.75;;;27.57;30.87
46598;BME280;32318;48.858;8.252;2023-06-24T18:26:44;100650.34;;;27.49;30.97
46598;BME280;32318;48.858;8.252;2023-06-24T18:34:44;100647.44;;;27.23;31.51
46598;BME280;32318;48.858;8.252;2023-06-24T18:42:45;100644.03;;;27.00;32.19
46598;BME280;32318;48.858;8.252;2023-06-24T18:50:45;100638.63;;;26.73;33.07
46598;BME280;32318;48.858;8.252;2023-06-24T18:58:45;100645.78;;;26.46;34.07
46598;BME280;32318;48.858;8.252;2023-06-24T19:06:46;100632.84;;;26.37;34.23
46598;BME280;32318;48.858;8.252;2023-06-24T19:14:46;100638.91;;;26.11;34.87
46598;BME280;32318;48.858;8.252;2023-06-24T19:22:46;100625.69;;;25.81;35.99
46598;BME280;32318;48.858;8.252;2023-06-24T19:30:46;100633.63;;;25.55;36.42
46598;BME280;32318;48.858;8.252;2023-06-24T19:38:47;100628.44;;;25.36;36.96
46598;BME280;32318;48.858;8.252;2023-06-24T19:46:57;100626.50;;;25.15;38.04
46598;BME280;32318;48.858;8.252;2023-06-24T19:54:57;100640.47;;;24.96;38.55
46598;BME280;32318;48.858;8.252;2023-06-24T20:02:59;100632.38;;;24.84;38.59
46598;BME280;32318;48.858;8.252;2023-06-24T20:11:01;100644.13;;;24.68;39.45
46598;BME280;32318;48.858;8.252;2023-06-24T20:19:01;100630.38;;;24.46;39.63
46598;BME280;32318;48.858;8.252;2023-06-24T20:27:02;100628.63;;;24.39;40.17
46598;BME280;32318;48.858;8.252;2023-06-24T20:35:04;100633.50;;;24.37;40.98
46598;BME280;32318;48.858;8.252;2023-06-24T20:43:04;100636.13;;;24.32;41.42
46598;BME280;32318;48.858;8.252;2023-06-24T20:51:04;100640.38;;;24.11;41.50
46598;BME280;32318;48.858;8.252;2023-06-24T20:59:04;100631.31;;;23.93;41.56
46598;BME280;32318;48.858;8.252;2023-06-24T21:07:05;100633.78;;;23.66;42.44
46598;BME280;32318;48.858;8.252;2023-06-24T21:15:06;100623.78;;;23.43;43.24
46598;BME280;32318;48.858;8.252;2023-06-24T21:23:06;100622.88;;;23.25;44.18
46598;BME280;32318;48.858;8.252;2023-06-24T21:31:06;100626.06;;;22.98;44.63
46598;BME280;32318;48.858;8.252;2023-06-24T21:39:07;100626.41;;;22.78;45.18
46598;BME280;32318;48.858;8.252;2023-06-24T21:47:07;100627.00;;;22.68;44.12
46598;BME280;32318;48.858;8.252;2023-06-24T21:55:08;100619.19;;;23.08;42.14
46598;BME280;32318;48.858;8.252;2023-06-24T22:03:08;100608.09;;;22.97;42.85
46598;BME280;32318;48.858;8.252;2023-06-24T22:11:08;100616.81;;;22.87;43.72
46598;BME280;32318;48.858;8.252;2023-06-24T22:19:09;100617.78;;;22.69;43.60
46598;BME280;32318;48.858;8.252;2023-06-24T22:27:09;100611.22;;;22.47;44.24
46598;BME280;32318;48.858;8.252;2023-06-24T22:35:09;100614.09;;;22.52;44.67
46598;BME280;32318;48.858;8.252;2023-06-24T22:43:10;100610.78;;;22.07;45.30
46598;BME280;32318;48.858;8.252;2023-06-24T22:51:10;100601.38;;;21.91;45.95
46598;BME280;32318;48.858;8.252;2023-06-24T22:59:10;100610.09;;;22.12;45.60
46598;BME280;32318;48.858;8.252;2023-06-24T23:07:11;100598.44;;;21.93;45.79
46598;BME280;32318;48.858;8.252;2023-06-24T23:24:08;100596.66;;;21.68;46.37
46598;BME280;32318;48.858;8.252;2023-06-24T23:32:09;100592.88;;;21.69;46.46
46598;BME280;32318;48.858;8.252;2023-06-24T23:40:10;100591.53;;;21.60;46.76
46598;BME280;32318;48.858;8.252;2023-06-24T23:56:20;100578.44;;;21.20;47.74
